Melcroft, Pennsylvania
Current Conditions -  °F | °C
As of 3:15 AM on Tuesday 27 Jan 2015 (Local Time) from KLBE Reporting Station
Overcast Overcast  
Wind Chill: 11°   Ceiling: 1000
Heat Index: 19°   Visibility: 10mi
Dew Point: 19°   Wind: 6mph
Humidity: 100%   Direction: 270°W
Pressure: 29.84"   Gusts: NA
Location:  40.05°N, 79.39°W
Report Text: KLBE 270815Z AUTO 27005KT 10SM OVC010 M07/M07 A2984 RMK AO2
Loading
Personal Weather Stations






























Interactive Weather Map New forecast layout! Learn more

10-Day Weather Forecast

Advertisements
Track Severe Weather on mobile